Impacts METAR Board
IDs:

KBFM - Mobile/Downtown Arpt, AL, US

Updated at: 1300 UTC 16 Aug 2022
Potential Impact None Slight Moderate High
Time 16/01Z 16/02Z 16/03Z 16/04Z 16/05Z 16/06Z 16/07Z 16/08Z 16/09Z 16/10Z 16/11Z 16/12Z 16/13Z
Temp86 86 85 83 83 82 80 81 80 80 80 80 83
Dewpt77 76 76 76 76 76 76 76 76 75 75 74 75
Altim29.89 29.91 29.93 29.93 29.92 29.90 29.90 29.90 29.90 29.90 29.91 29.91 29.93
VIS10 10 10 10 10 10 10 10 10 10 10 10 10
CIG-- -- -- -- -- -- -- -- -- -- -- -- --
CoverSCTSCTCLRCLRCLRCLRCLRCLRCLRCLRCLRCLRCLR
FltCatVFRVFRVFRVFRVFRVFRVFRVFRVFRVFRVFRVFRVFR
WX--------------------------
WDir0250270250260260270260250260270270280
WSpd0 3 4 5 3 3 3 3 4 4 4 5 6
WGst-- -- -- -- -- -- -- -- -- -- -- -- --
Raw hourly METARs
KBFM 160053Z 00000KT 10SM FEW042 SCT055 30/25 A2989 RMK AO2 SLP122 T03000250
KBFM 160153Z 25003KT 10SM SCT060 30/24 A2991 RMK AO2 SLP128 T03000244
KBFM 160253Z AUTO 27004KT 10SM CLR 29/24 A2993 RMK AO2 SLP133 T02940244 53013
KBFM 160353Z AUTO 25005KT 10SM CLR 28/24 A2993 RMK AO2 SLP135 T02830244
KBFM 160453Z AUTO 26003KT 10SM CLR 28/24 A2992 RMK AO2 SLP130 T02830244
KBFM 160553Z AUTO 26003KT 10SM CLR 28/24 A2990 RMK AO2 SLP125 T02780244 10328 20272 403560244 58008
KBFM 160653Z AUTO 27003KT 10SM CLR 27/24 A2990 RMK AO2 SLP126 T02670244
KBFM 160753Z AUTO 26003KT 10SM CLR 27/24 A2990 RMK AO2 SLP126 T02720244
KBFM 160853Z 25004KT 10SM CLR 27/24 A2990 RMK AO2 SLP126 T02670244 51001
KBFM 160953Z 26004KT 10SM CLR 27/24 A2990 RMK AO2 SLP126 T02670239
KBFM 161053Z 27004KT 10SM CLR 27/24 A2991 RMK AO2 SLP127 T02670239
KBFM 161153Z 27005KT 10SM CLR 27/23 A2991 RMK AO2 SLP126 7//// T02670233 10278 20267 50000
KBFM 161253Z 28006KT 10SM CLR 28/24 A2993 RMK AO2 SLP135 T02830239



Page loaded:  13:13 UTC  |   06:13 AM Pacific  |   07:13 AM Mountain  |   08:13 AM Central  |   09:13 AM Eastern

 

ADVISORIES

FORECASTS

FORECASTS

OBSERVATIONS

USER TOOLS

ABOUT US